Weather at Robe Airport

Public forecast

Using degrees Celsius for public forecast. Weather courtesy of forecast.io.

Closest aviation weather report (METAR) to Robe Airport

Closest report is Addis Ababa Bole International Airport, 133.9 nm (248.1 km) NNW.

2024/07/21 05:00 (retrieved 2 hours ago)

HAAB 210500Z 26007KT 8000 -RA BKN020 OVC070 15/15 Q1028

Closest aviation forecast (TAF) to Robe Airport

Forecast is more than 12 hours old.

Closest forecast is Hawassa International Airport, 98.3 nm (182.0 km) W.

2024/07/20 16:20 (retrieved 15 hours ago)

TAF HALA 201530Z 2016/2122 18010KT 6000 -TSRA OVC028